메인 페이지
METAR-TAF:

METAR-TAF

공항 :

오슬로, 노르웨이

오슬로 가르데르모엔 국제공항

위도: 60-12N, 경도: 011-05E, 고도: 208m

현재 날씨관측

예보는 33분 전, 05:20시(UTC)에 발표되었습니다.
무풍
온도 -6°C
습도 79%
기압 1027 hPa
시정 10km 이상
고도 2100ft 상공 구름 많음
약한소낙눈

METAR: ENGM 200520Z 00000KT 9999 -SHSN BKN021 M06/M09 Q1027 NOSIG

시각: 06:53 (05:53 UTC)

예보

예보 대상 시간: 20일 00시부터 20일 24시까지 (UTC)
여러 방향의 바람 5kt
시정 10km 이상
고도 1200ft 상공 구름 조금
고도 2500ft 상공 구름 많음
일시적
20일 00시부터 20일 09시까지 (UTC)
고도 1200ft 상공 구름 많음

TAF: ENGM 2000/2024 VRB05KT 9999 FEW012 BKN025 TEMPO 2000/2009 BKN012

4,000개 이상의 공항 관측 자료 및 예보 (METAR 및 TAF 보고).

지도상에서 검색 가능한 기상관측소가 노란 점과 빨간 점으로 표시되어 있습니다.

기상관측소 명을 보려면 표시 위로 마우스를 이동하세요.

날씨 관측과 예보를 보려면 클릭하세요.

지도 변경 : 확대하려면 엑스 표시가 있는 녹색 버튼, 축소하려면 빼기 표시가 있는 녹색 버튼, 다음 페이지의 지도를 보려면 녹색 화살표를 클릭하세요.


METAR-TAF: